createdAt,value
2016-04-06T00:00:19.851Z,0
2016-04-06T00:01:19.822Z,0
2016-04-06T00:02:19.841Z,0
2016-04-06T00:03:19.859Z,0
2016-04-06T00:04:19.924Z,0
2016-04-06T00:05:19.864Z,0
2016-04-06T00:06:19.867Z,0
2016-04-06T00:07:19.885Z,0
2016-04-06T00:08:19.903Z,0
2016-04-06T00:09:19.906Z,0
2016-04-06T00:10:19.970Z,0
2016-04-06T00:11:19.911Z,0
2016-04-06T00:12:19.914Z,0
2016-04-06T00:13:19.916Z,0
2016-04-06T00:14:19.950Z,0
2016-04-06T00:15:19.953Z,0
2016-04-06T00:16:19.955Z,0
2016-04-06T00:17:19.958Z,0
2016-04-06T00:18:19.946Z,0
2016-04-06T00:19:19.964Z,0
2016-04-06T00:20:19.982Z,0
2016-04-06T00:21:19.985Z,0
2016-04-06T00:22:19.988Z,0
2016-04-06T00:23:20.006Z,0
2016-04-06T00:24:19.993Z,0
2016-04-06T00:25:20.011Z,0
2016-04-06T00:26:20.029Z,0
2016-04-06T00:27:20.032Z,0
2016-04-06T00:28:20.035Z,0
2016-04-06T00:29:20.038Z,0
2016-04-06T00:30:20.041Z,0
2016-04-06T00:31:20.060Z,0
2016-04-06T00:32:20.046Z,0
2016-04-06T00:33:20.080Z,0
2016-04-06T00:34:20.082Z,0
2016-04-06T00:35:20.085Z,0
2016-04-06T00:36:20.087Z,0
2016-04-06T00:37:20.090Z,0
2016-04-06T00:38:20.125Z,0
2016-04-06T00:39:20.128Z,0
2016-04-06T00:40:20.146Z,0
2016-04-06T00:41:20.133Z,0
2016-04-06T00:42:20.136Z,0
2016-04-06T00:43:20.138Z,0
2016-04-06T00:44:20.141Z,0
2016-04-06T00:45:20.144Z,0
2016-04-06T00:46:20.192Z,0
2016-04-06T00:47:20.165Z,0
2016-04-06T00:48:20.183Z,0
2016-04-06T00:49:20.186Z,0
2016-04-06T00:50:20.172Z,0
2016-04-06T00:51:20.191Z,0
2016-04-06T00:52:20.225Z,0
2016-04-06T00:53:20.196Z,0
2016-04-06T00:54:20.214Z,0
2016-04-06T00:55:20.232Z,0
2016-04-06T00:56:20.236Z,0
2016-04-06T00:57:20.254Z,0
2016-04-06T00:58:20.241Z,0
2016-04-06T00:59:20.244Z,0
2016-04-06T01:00:19.527Z,0
2016-04-06T01:01:20.265Z,0
2016-04-06T01:02:20.283Z,0
2016-04-06T01:03:20.285Z,0
2016-04-06T01:04:20.288Z,0
2016-04-06T01:05:20.290Z,0
2016-04-06T01:06:20.293Z,0
2016-04-06T01:07:20.312Z,0
2016-04-06T01:08:20.315Z,0
2016-04-06T01:09:20.318Z,0
2016-04-06T01:10:20.320Z,0
2016-04-06T01:11:20.354Z,0
2016-04-06T01:12:20.356Z,0
2016-04-06T01:13:20.203Z,0
2016-04-06T01:14:20.362Z,0
2016-04-06T01:15:20.365Z,0
2016-04-06T01:16:20.368Z,0
2016-04-06T01:17:20.370Z,0
2016-04-06T01:18:20.389Z,0
2016-04-06T01:19:20.391Z,0
2016-04-06T01:20:20.394Z,0
2016-04-06T01:21:20.397Z,0
2016-04-06T01:22:20.258Z,0
2016-04-06T01:23:20.277Z,0
2016-04-06T01:24:20.419Z,0
2016-04-06T01:25:20.439Z,0
2016-04-06T01:26:20.441Z,0
2016-04-06T01:27:20.475Z,0
2016-04-06T01:28:20.463Z,0
2016-04-06T01:29:20.465Z,0
2016-04-06T01:30:20.468Z,0
2016-04-06T01:31:20.470Z,0
2016-04-06T01:32:20.488Z,0
2016-04-06T01:33:20.490Z,0
2016-04-06T01:34:20.509Z,0
2016-04-06T01:35:20.512Z,0
2016-04-06T01:36:20.515Z,0
2016-04-06T01:37:20.518Z,0
2016-04-06T01:38:20.521Z,0
2016-04-06T01:39:20.554Z,0
2016-04-06T01:40:20.557Z,0
2016-04-06T01:41:20.544Z,0
2016-04-06T01:42:20.547Z,0
2016-04-06T01:43:20.565Z,0
2016-04-06T01:44:20.599Z,0
2016-04-06T01:45:20.571Z,0
2016-04-06T01:46:20.589Z,0
2016-04-06T01:47:20.592Z,0
2016-04-06T01:48:20.594Z,0
2016-04-06T01:49:20.675Z,0
2016-04-06T01:50:20.614Z,0
2016-04-06T01:51:20.617Z,0
2016-04-06T01:52:20.620Z,0
2016-04-06T01:53:20.622Z,0
2016-04-06T01:54:20.642Z,0
2016-04-06T01:55:20.644Z,0
2016-04-06T01:56:20.647Z,0
2016-04-06T01:57:20.666Z,0
2016-04-06T01:58:20.699Z,0
2016-04-06T01:59:20.671Z,0
2016-04-06T02:00:20.673Z,0
2016-04-06T02:01:20.707Z,0
2016-04-06T02:02:20.725Z,0
2016-04-06T02:03:20.728Z,0
2016-04-06T02:04:20.793Z,0
2016-04-06T02:05:20.718Z,0
2016-04-06T02:06:20.721Z,0
2016-04-06T02:07:20.739Z,0
2016-04-06T02:08:20.749Z,0
2016-04-06T02:09:20.752Z,0
2016-04-06T02:10:20.755Z,0
2016-04-06T02:11:20.743Z,0
2016-04-06T02:12:20.760Z,0
2016-04-06T02:13:20.779Z,0
2016-04-06T02:14:20.766Z,0
2016-04-06T02:15:20.785Z,0
2016-04-06T02:16:20.804Z,0
2016-04-06T02:17:20.790Z,0
2016-04-06T02:18:20.809Z,0
2016-04-06T02:19:20.967Z,0
2016-04-06T02:20:20.829Z,0
2016-04-06T02:21:20.832Z,0
2016-04-06T02:22:20.851Z,0
2016-04-06T02:23:20.854Z,0
2016-04-06T02:24:20.871Z,0
2016-04-06T02:25:20.859Z,0
2016-04-06T02:26:20.861Z,0
2016-04-06T02:27:20.864Z,0
2016-04-06T02:28:20.897Z,0
2016-04-06T02:29:20.884Z,0
2016-04-06T02:30:20.903Z,0
2016-04-06T02:31:20.906Z,0
2016-04-06T02:32:20.909Z,0
2016-04-06T02:33:20.912Z,0
2016-04-06T02:34:21.320Z,0
2016-04-06T02:35:20.933Z,0
2016-04-06T02:36:20.935Z,0
2016-04-06T02:37:20.938Z,0
2016-04-06T02:38:20.956Z,0
2016-04-06T02:39:20.943Z,0
2016-04-06T02:40:20.977Z,0
2016-04-06T02:41:20.980Z,0
2016-04-06T02:42:20.982Z,0
2016-04-06T02:43:20.985Z,0
2016-04-06T02:44:21.004Z,0
2016-04-06T02:45:21.007Z,0
2016-04-06T02:46:20.868Z,0
2016-04-06T02:47:21.012Z,0
2016-04-06T02:48:21.014Z,0
2016-04-06T02:49:21.360Z,0
2016-04-06T02:50:21.035Z,0
2016-04-06T02:51:21.038Z,0
2016-04-06T02:52:21.057Z,0
2016-04-06T02:53:21.059Z,0
2016-04-06T02:54:21.062Z,0
2016-04-06T02:55:21.064Z,0
2016-04-06T02:56:21.082Z,0
2016-04-06T02:57:21.085Z,0
2016-04-06T02:58:21.103Z,0
2016-04-06T02:59:21.090Z,0
2016-04-06T03:00:21.093Z,0
2016-04-06T03:01:21.143Z,0
2016-04-06T03:02:21.115Z,0
2016-04-06T03:03:21.133Z,0
2016-04-06T03:04:21.261Z,0
2016-04-06T03:05:21.123Z,0
2016-04-06T03:06:21.141Z,0
2016-04-06T03:07:21.159Z,0
2016-04-06T03:08:21.146Z,0
2016-04-06T03:09:21.164Z,0
2016-04-06T03:10:21.166Z,0
2016-04-06T03:11:21.169Z,0
2016-04-06T03:12:21.188Z,0
2016-04-06T03:13:21.207Z,0
2016-04-06T03:14:21.210Z,0
2016-04-06T03:15:21.227Z,0
2016-04-06T03:16:21.215Z,0
2016-04-06T03:17:21.217Z,0
2016-04-06T03:18:21.235Z,0
2016-04-06T03:19:21.332Z,0
2016-04-06T03:20:21.241Z,0
2016-04-06T03:21:21.244Z,0
2016-04-06T03:22:21.262Z,0
2016-04-06T03:23:21.265Z,0
2016-04-06T03:24:21.267Z,0
2016-04-06T03:25:21.285Z,0
2016-04-06T03:26:21.303Z,0
2016-04-06T03:27:21.290Z,0
2016-04-06T03:28:21.309Z,0
2016-04-06T03:29:21.311Z,0
2016-04-06T03:30:21.315Z,0
2016-04-06T03:31:21.317Z,0
2016-04-06T03:32:21.304Z,0
2016-04-06T03:33:21.323Z,0
2016-04-06T03:34:21.279Z,0
2016-04-06T03:35:21.359Z,0
2016-04-06T03:36:21.347Z,0
2016-04-06T03:37:21.364Z,0
2016-04-06T03:38:21.383Z,0
2016-04-06T03:39:21.385Z,0
2016-04-06T03:40:21.372Z,0
2016-04-06T03:41:21.235Z,0
2016-04-06T03:42:21.394Z,0
2016-04-06T03:43:21.428Z,0
2016-04-06T03:44:21.446Z,0
2016-04-06T03:45:21.433Z,0
2016-04-06T03:46:21.435Z,0
2016-04-06T03:47:21.438Z,0
2016-04-06T03:48:21.426Z,0
2016-04-06T03:49:21.507Z,0
2016-04-06T03:50:21.462Z,0
2016-04-06T03:51:21.449Z,0
2016-04-06T03:52:21.468Z,0
2016-04-06T03:53:21.485Z,0
2016-04-06T03:54:21.473Z,0
2016-04-06T03:55:21.491Z,0
2016-04-06T03:56:21.493Z,0
2016-04-06T03:57:21.356Z,0
2016-04-06T03:58:21.514Z,0
2016-04-06T03:59:21.518Z,0
2016-04-06T04:00:21.520Z,0
2016-04-06T04:01:21.539Z,0
2016-04-06T04:02:21.542Z,0
2016-04-06T04:03:21.544Z,0
2016-04-06T04:04:21.750Z,0
2016-04-06T04:05:21.564Z,0
2016-04-06T04:06:21.552Z,0
2016-04-06T04:07:21.570Z,0
2016-04-06T04:08:21.589Z,0
2016-04-06T04:09:21.576Z,0
2016-04-06T04:10:21.594Z,0
2016-04-06T04:11:21.597Z,0
2016-04-06T04:12:21.599Z,0
2016-04-06T04:13:21.602Z,0
2016-04-06T04:14:21.621Z,0
2016-04-06T04:15:21.639Z,0
2016-04-06T04:16:21.626Z,0
2016-04-06T04:17:21.644Z,0
2016-04-06T04:18:21.647Z,0
2016-04-06T04:19:21.946Z,0
2016-04-06T04:20:21.668Z,0
2016-04-06T04:21:21.655Z,0
2016-04-06T04:22:21.673Z,0
2016-04-06T04:23:21.676Z,0
2016-04-06T04:24:21.694Z,0
2016-04-06T04:25:21.712Z,0
2016-04-06T04:26:21.699Z,0
2016-04-06T04:27:21.702Z,0
2016-04-06T04:28:21.736Z,0
2016-04-06T04:29:21.724Z,0
2016-04-06T04:30:21.726Z,0
2016-04-06T04:31:21.760Z,0
2016-04-06T04:32:21.731Z,0
2016-04-06T04:33:21.765Z,0
2016-04-06T04:34:21.752Z,0
2016-04-06T04:35:21.770Z,0
2016-04-06T04:36:21.773Z,0
2016-04-06T04:37:21.775Z,0
2016-04-06T04:38:21.794Z,0
2016-04-06T04:39:21.781Z,0
2016-04-06T04:40:21.800Z,0
2016-04-06T04:41:21.802Z,0
2016-04-06T04:42:21.821Z,0
2016-04-06T04:43:21.824Z,0
2016-04-06T04:44:21.826Z,0
2016-04-06T04:45:21.829Z,0
2016-04-06T04:46:21.832Z,0
2016-04-06T04:47:21.834Z,0
2016-04-06T04:48:21.869Z,0
2016-04-06T04:49:21.871Z,0
2016-04-06T04:50:21.873Z,0
2016-04-06T04:51:21.876Z,0
2016-04-06T04:52:21.879Z,0
2016-04-06T04:53:21.725Z,4
2016-04-06T04:54:21.900Z,4
2016-04-06T04:55:21.902Z,4
2016-04-06T04:56:21.905Z,4
2016-04-06T04:57:21.924Z,4
2016-04-06T04:58:21.910Z,4
2016-04-06T04:59:21.929Z,4
2016-04-06T05:00:21.932Z,8
2016-04-06T05:01:21.934Z,8
2016-04-06T05:02:21.968Z,8
2016-04-06T05:03:21.970Z,8
2016-04-06T05:04:21.989Z,8
2016-04-06T05:05:21.241Z,8
2016-04-06T05:06:21.979Z,8
2016-04-06T05:07:21.982Z,12
2016-04-06T05:08:22.016Z,8
2016-04-06T05:09:22.003Z,8
2016-04-06T05:10:22.006Z,12
2016-04-06T05:11:22.008Z,12
2016-04-06T05:12:22.011Z,12
2016-04-06T05:13:22.014Z,16
2016-04-06T05:14:22.032Z,12
2016-04-06T05:15:22.050Z,16
2016-04-06T05:16:22.068Z,16
2016-04-06T05:17:22.055Z,16
2016-04-06T05:18:22.043Z,20
2016-04-06T05:19:21.905Z,16
2016-04-06T05:20:22.094Z,20
2016-04-06T05:21:22.097Z,20
2016-04-06T05:22:22.100Z,20
2016-04-06T05:23:22.102Z,20
2016-04-06T05:24:22.199Z,20
2016-04-06T05:25:22.108Z,24
2016-04-06T05:26:22.110Z,28
2016-04-06T05:27:22.129Z,28
2016-04-06T05:28:22.127Z,28
2016-04-06T05:29:22.207Z,24
2016-04-06T05:30:22.148Z,24
2016-04-06T05:31:22.151Z,24
2016-04-06T05:32:22.154Z,24
2016-04-06T05:33:22.171Z,24
2016-04-06T05:34:22.174Z,24
2016-04-06T05:35:22.177Z,24
2016-04-06T05:36:22.196Z,24
2016-04-06T05:37:22.198Z,24
2016-04-06T05:38:22.200Z,24
2016-04-06T05:39:22.204Z,28
2016-04-06T05:40:22.222Z,28
2016-04-06T05:41:22.209Z,28
2016-04-06T05:42:22.228Z,24
2016-04-06T05:43:22.230Z,28
2016-04-06T05:44:22.248Z,28
2016-04-06T05:45:22.236Z,28
2016-04-06T05:46:22.253Z,28
2016-04-06T05:47:22.272Z,28
2016-04-06T05:48:22.258Z,28
2016-04-06T05:49:22.277Z,32
2016-04-06T05:50:22.280Z,32
2016-04-06T05:51:22.282Z,32
2016-04-06T05:52:22.301Z,32
2016-04-06T05:53:22.304Z,36
2016-04-06T05:54:22.307Z,40
2016-04-06T05:55:22.324Z,52
2016-04-06T05:56:22.327Z,56
2016-04-06T05:57:22.314Z,56
2016-04-06T05:58:22.333Z,56
2016-04-06T05:59:22.352Z,60
2016-04-06T06:00:22.353Z,60
2016-04-06T06:01:22.357Z,56
2016-04-06T06:02:22.359Z,56
2016-04-06T06:03:22.373Z,56
2016-04-06T06:04:22.436Z,56
2016-04-06T06:05:22.500Z,60
2016-04-06T06:06:22.548Z,60
2016-04-06T06:07:22.597Z,64
2016-04-06T06:08:22.637Z,64
2016-04-06T06:09:22.656Z,64
2016-04-06T06:10:22.706Z,64
2016-04-06T06:11:22.740Z,64
2016-04-06T06:12:22.729Z,68
2016-04-06T06:13:22.745Z,72
2016-04-06T06:14:22.753Z,72
2016-04-06T06:15:22.762Z,80
2016-04-06T06:16:22.785Z,80
2016-04-06T06:17:22.809Z,88
2016-04-06T06:18:22.817Z,88
2016-04-06T06:19:22.821Z,88
2016-04-06T06:20:22.842Z,88
2016-04-06T06:21:22.847Z,84
2016-04-06T06:22:22.836Z,84
2016-04-06T06:23:22.857Z,84
2016-04-06T06:24:22.861Z,84
2016-04-06T06:25:22.880Z,76
2016-04-06T06:26:22.868Z,76
2016-04-06T06:27:22.871Z,72
2016-04-06T06:28:22.937Z,68
2016-04-06T06:29:22.893Z,72
2016-04-06T06:30:22.912Z,72
2016-04-06T06:31:22.930Z,72
2016-04-06T06:32:22.918Z,76
2016-04-06T06:33:22.952Z,84
2016-04-06T06:34:22.923Z,88
2016-04-06T06:35:22.957Z,96
2016-04-06T06:36:22.944Z,104
2016-04-06T06:37:22.963Z,104
2016-04-06T06:38:22.981Z,108
2016-04-06T06:39:22.984Z,112
2016-04-06T06:40:23.034Z,112
2016-04-06T06:41:23.005Z,116
2016-04-06T06:42:22.992Z,116
2016-04-06T06:43:23.010Z,124
2016-04-06T06:44:23.013Z,128
2016-04-06T06:45:23.032Z,132
2016-04-06T06:46:23.018Z,132
2016-04-06T06:47:23.036Z,136
2016-04-06T06:48:23.039Z,128
2016-04-06T06:49:23.042Z,120
2016-04-06T06:50:23.045Z,112
2016-04-06T06:51:23.047Z,108
2016-04-06T06:52:23.066Z,112
2016-04-06T06:53:23.069Z,120
2016-04-06T06:54:23.071Z,136
2016-04-06T06:55:23.105Z,144
2016-04-06T06:56:23.092Z,152
2016-04-06T06:57:23.111Z,160
2016-04-06T06:58:23.097Z,160
2016-04-06T06:59:23.115Z,164
2016-04-06T07:00:23.102Z,164
2016-04-06T07:01:23.122Z,164
2016-04-06T07:02:23.124Z,160
2016-04-06T07:03:23.127Z,156
2016-04-06T07:04:23.144Z,156
2016-04-06T07:05:23.351Z,152
2016-04-06T07:06:23.166Z,152
2016-04-06T07:07:23.152Z,152
2016-04-06T07:08:23.171Z,152
2016-04-06T07:09:23.190Z,232
2016-04-06T07:10:23.193Z,248
2016-04-06T07:11:23.195Z,248
2016-04-06T07:12:23.213Z,248
2016-04-06T07:13:23.215Z,244
2016-04-06T07:14:23.203Z,244
2016-04-06T07:15:23.236Z,252
2016-04-06T07:16:23.223Z,264
2016-04-06T07:17:23.226Z,284
2016-04-06T07:18:23.261Z,308
2016-04-06T07:19:23.247Z,324
2016-04-06T07:20:23.282Z,336
2016-04-06T07:21:23.253Z,344
2016-04-06T07:22:23.256Z,344
2016-04-06T07:23:23.290Z,336
2016-04-06T07:24:23.278Z,320
2016-04-06T07:25:23.280Z,304
2016-04-06T07:26:23.297Z,300
2016-04-06T07:27:23.300Z,300
2016-04-06T07:28:23.334Z,296
2016-04-06T07:29:23.321Z,296
2016-04-06T07:30:23.324Z,296
2016-04-06T07:31:23.358Z,292
2016-04-06T07:32:23.344Z,280
2016-04-06T07:33:23.364Z,268
2016-04-06T07:34:23.350Z,256
2016-04-06T07:35:23.369Z,252
2016-04-06T07:36:23.353Z,244
2016-04-06T07:37:23.374Z,248
2016-04-06T07:38:23.393Z,252
2016-04-06T07:39:23.380Z,264
2016-04-06T07:40:23.398Z,272
2016-04-06T07:41:23.401Z,284
2016-04-06T07:42:23.388Z,296
2016-04-06T07:43:23.406Z,304
2016-04-06T07:44:23.409Z,312
2016-04-06T07:45:23.443Z,312
2016-04-06T07:46:23.446Z,320
2016-04-06T07:47:23.448Z,328
2016-04-06T07:48:23.451Z,332
2016-04-06T07:49:23.454Z,332
2016-04-06T07:50:23.423Z,332
2016-04-06T07:51:23.459Z,332
2016-04-06T07:52:23.477Z,332
2016-04-06T07:53:23.480Z,332
2016-04-06T07:54:23.529Z,336
2016-04-06T07:55:23.498Z,340
2016-04-06T07:56:23.500Z,348
2016-04-06T07:57:23.519Z,352
2016-04-06T07:58:23.506Z,352
2016-04-06T07:59:23.525Z,352
2016-04-06T08:00:23.542Z,344
2016-04-06T08:01:23.530Z,344
2016-04-06T08:02:23.547Z,356
2016-04-06T08:03:23.551Z,372
2016-04-06T08:04:23.569Z,380
2016-04-06T08:05:23.571Z,376
2016-04-06T08:06:23.574Z,368
2016-04-06T08:07:23.577Z,376
2016-04-06T08:08:23.596Z,380
2016-04-06T08:09:23.599Z,388
2016-04-06T08:10:23.616Z,400
2016-04-06T08:11:23.619Z,424
2016-04-06T08:12:23.622Z,448
2016-04-06T08:13:23.640Z,480
2016-04-06T08:14:23.659Z,504
2016-04-06T08:15:23.646Z,520
2016-04-06T08:16:23.882Z,524
2016-04-06T08:17:23.651Z,524
2016-04-06T08:18:23.669Z,516
2016-04-06T08:19:23.687Z,512
2016-04-06T08:20:23.940Z,496
2016-04-06T08:21:23.692Z,492
2016-04-06T08:22:23.695Z,492
2016-04-06T08:23:23.698Z,492
2016-04-06T08:24:23.701Z,488
2016-04-06T08:25:23.720Z,484
2016-04-06T08:26:23.722Z,496
2016-04-06T08:27:23.756Z,492
2016-04-06T08:28:23.727Z,480
2016-04-06T08:29:23.762Z,532
2016-04-06T08:30:23.764Z,560
2016-04-06T08:31:23.767Z,596
2016-04-06T08:32:23.785Z,632
2016-04-06T08:33:23.788Z,652
2016-04-06T08:34:23.806Z,676
2016-04-06T08:35:23.794Z,700
2016-04-06T08:36:23.812Z,736
2016-04-06T08:37:23.814Z,784
2016-04-06T08:38:23.832Z,856
2016-04-06T08:39:23.819Z,952
2016-04-06T08:40:23.869Z,984
2016-04-06T08:41:23.685Z,980
2016-04-06T08:42:23.843Z,800
2016-04-06T08:43:23.846Z,612
2016-04-06T08:44:23.865Z,568
2016-04-06T08:45:23.868Z,568
2016-04-06T08:46:23.870Z,600
2016-04-06T08:47:23.888Z,620
2016-04-06T08:48:23.907Z,668
2016-04-06T08:49:23.909Z,724
2016-04-06T08:50:23.911Z,748
2016-04-06T08:51:23.899Z,700
2016-04-06T08:52:23.932Z,676
2016-04-06T08:53:23.935Z,688
2016-04-06T08:54:23.938Z,752
2016-04-06T08:55:23.940Z,736
2016-04-06T08:56:23.959Z,748
2016-04-06T08:57:24.009Z,724
2016-04-06T08:58:23.964Z,680
2016-04-06T08:59:23.983Z,656
2016-04-06T09:00:24.000Z,620
2016-04-06T09:01:23.989Z,600
2016-04-06T09:02:23.991Z,620
2016-04-06T09:03:24.009Z,632
2016-04-06T09:04:24.011Z,632
2016-04-06T09:05:24.030Z,704
2016-04-06T09:06:24.033Z,740
2016-04-06T09:07:24.036Z,696
2016-04-06T09:08:24.038Z,628
2016-04-06T09:10:24.059Z,624
2016-04-06T09:11:24.077Z,600
2016-04-06T09:12:24.080Z,596
2016-04-06T09:13:24.082Z,588
2016-04-06T09:14:24.086Z,596
2016-04-06T09:15:24.104Z,612
2016-04-06T09:16:24.121Z,616
2016-04-06T09:17:24.109Z,628
2016-04-06T09:18:24.112Z,636
2016-04-06T09:19:24.130Z,648
2016-04-06T09:20:24.132Z,652
2016-04-06T09:21:24.152Z,648
2016-04-06T09:22:24.138Z,648
2016-04-06T09:23:24.156Z,644
2016-04-06T09:24:24.176Z,640
2016-04-06T09:25:24.193Z,612
2016-04-06T09:26:24.181Z,576
2016-04-06T09:27:24.214Z,552
2016-04-06T09:28:24.233Z,536
2016-04-06T09:29:24.204Z,536
2016-04-06T09:30:23.456Z,532
2016-04-06T09:31:24.209Z,508
2016-04-06T09:32:24.244Z,496
2016-04-06T09:33:24.247Z,484
2016-04-06T09:34:24.233Z,464
2016-04-06T09:35:24.236Z,448
2016-04-06T09:36:24.567Z,440
2016-04-06T09:37:24.272Z,440
2016-04-06T09:38:24.275Z,444
2016-04-06T09:39:24.294Z,452
2016-04-06T09:40:24.296Z,456
2016-04-06T09:41:24.283Z,460
2016-04-06T09:42:24.322Z,472
2016-04-06T09:43:38.484Z,484
2016-04-06T09:44:24.327Z,488
2016-04-06T09:45:24.308Z,492
2016-04-06T09:46:24.310Z,496
2016-04-06T09:47:24.328Z,500
2016-04-06T09:48:24.347Z,488
2016-04-06T09:49:24.365Z,484
2016-04-06T09:50:24.353Z,496
2016-04-06T09:51:38.530Z,500
2016-04-06T09:52:24.217Z,504
2016-04-06T09:53:24.376Z,500
2016-04-06T09:54:24.410Z,504
2016-04-06T09:55:24.397Z,508
2016-04-06T09:56:24.415Z,516
2016-04-06T09:57:24.418Z,512
2016-04-06T09:58:24.265Z,512
2016-04-06T09:59:24.439Z,492
2016-04-06T10:00:24.426Z,472
2016-04-06T10:01:24.444Z,448
2016-04-06T10:02:24.448Z,440
2016-04-06T10:03:24.450Z,444
2016-04-06T10:04:24.468Z,436
2016-04-06T10:05:24.487Z,424
2016-04-06T10:06:24.473Z,416
2016-04-06T10:07:24.492Z,396
2016-04-06T10:08:24.495Z,384
2016-04-06T10:09:24.497Z,364
2016-04-06T10:10:24.515Z,368
2016-04-06T10:11:24.534Z,380
2016-04-06T10:12:24.520Z,392
2016-04-06T10:13:24.539Z,400
2016-04-06T10:14:24.542Z,388
2016-04-06T10:15:24.544Z,368
2016-04-06T10:16:24.547Z,364
2016-04-06T10:17:24.566Z,356
2016-04-06T10:18:24.569Z,336
2016-04-06T10:19:24.586Z,324
2016-04-06T10:20:24.574Z,308
2016-04-06T10:21:24.608Z,300
2016-04-06T10:22:24.610Z,300
2016-04-06T10:23:24.597Z,300
2016-04-06T10:24:24.616Z,300
2016-04-06T10:25:24.618Z,300
2016-04-06T10:26:24.637Z,300
2016-04-06T10:27:24.640Z,300
2016-04-06T10:28:24.643Z,304
2016-04-06T10:29:24.645Z,320
2016-04-06T10:30:24.662Z,344
2016-04-06T10:31:24.651Z,372
2016-04-06T10:32:24.668Z,408
2016-04-06T10:33:24.546Z,440
2016-04-06T10:34:24.689Z,476
2016-04-06T10:35:24.677Z,508
2016-04-06T10:36:24.695Z,528
2016-04-06T10:37:24.697Z,556
2016-04-06T10:38:24.731Z,588
2016-04-06T10:39:24.718Z,616
2016-04-06T10:40:24.737Z,624
2016-04-06T10:41:24.739Z,616
2016-04-06T10:42:24.742Z,612
2016-04-06T10:43:23.995Z,612
2016-04-06T10:44:24.747Z,620
2016-04-06T10:45:24.750Z,620
2016-04-06T10:46:24.753Z,620
2016-04-06T10:47:24.772Z,616
2016-04-06T10:48:24.775Z,612
2016-04-06T10:49:24.777Z,612
2016-04-06T10:50:24.794Z,624
2016-04-06T10:52:24.832Z,672
2016-04-06T10:53:24.819Z,668
2016-04-06T10:54:24.837Z,680
2016-04-06T10:55:24.855Z,672
2016-04-06T10:56:24.718Z,676
2016-04-06T10:57:24.829Z,680
2016-04-06T10:58:24.832Z,692
2016-04-06T10:59:24.882Z,720
2016-04-06T11:00:24.884Z,752
2016-04-06T11:01:24.871Z,820
2016-04-06T11:02:24.904Z,920
2016-04-06T11:03:24.893Z,844
2016-04-06T11:04:24.879Z,812
2016-04-06T11:05:24.897Z,644
2016-04-06T11:06:25.056Z,584
2016-04-06T11:07:24.904Z,604
2016-04-06T11:08:24.921Z,640
2016-04-06T11:09:24.923Z,572
2016-04-06T11:10:24.943Z,660
2016-04-06T11:11:24.945Z,784
2016-04-06T11:12:24.947Z,792
2016-04-06T11:13:24.951Z,824
2016-04-06T11:14:24.954Z,872
2016-04-06T11:15:24.987Z,928
2016-04-06T11:16:24.989Z,980
2016-04-06T11:17:25.008Z,968
2016-04-06T11:18:24.980Z,1024
2016-04-06T11:19:24.997Z,1020
2016-04-06T11:20:25.000Z,1032
2016-04-06T11:21:25.019Z,1140
2016-04-06T11:22:25.022Z,1052
2016-04-06T11:23:25.024Z,1092
2016-04-06T11:24:25.043Z,1112
2016-04-06T11:25:25.030Z,1096
2016-04-06T11:26:25.048Z,1200
2016-04-06T11:27:25.066Z,1116
2016-04-06T11:28:25.054Z,1388
2016-04-06T11:29:25.056Z,1436
2016-04-06T11:30:25.090Z,1456
2016-04-06T11:31:25.076Z,1412
2016-04-06T11:32:25.079Z,1432
2016-04-06T11:33:25.082Z,1432
2016-04-06T11:34:24.945Z,1240
2016-04-06T11:35:25.104Z,1084
2016-04-06T11:36:25.106Z,968
2016-04-06T11:37:25.109Z,916
2016-04-06T11:38:25.112Z,960
2016-04-06T11:39:25.161Z,1120
2016-04-06T11:40:25.132Z,1360
2016-04-06T11:41:25.134Z,1404
2016-04-06T11:42:25.154Z,1528
2016-04-06T11:43:25.156Z,1664
2016-04-06T11:44:25.175Z,1740
2016-04-06T11:45:25.161Z,1836
2016-04-06T11:46:25.180Z,2048
2016-04-06T11:47:25.183Z,2188
2016-04-06T11:48:25.170Z,2116
2016-04-06T11:49:25.172Z,1872
2016-04-06T11:50:25.191Z,1812
2016-04-06T11:51:25.194Z,1748
2016-04-06T11:52:25.196Z,1804
2016-04-06T11:53:25.199Z,1636
2016-04-06T11:54:25.216Z,1792
2016-04-06T11:55:25.204Z,2672
2016-04-06T11:56:25.222Z,2268
2016-04-06T11:57:25.225Z,2252
2016-04-06T11:58:25.228Z,2148
2016-04-06T11:59:25.230Z,2328
2016-04-06T12:00:25.233Z,2120
2016-04-06T12:01:25.251Z,2208
2016-04-06T12:02:25.254Z,2576
2016-04-06T12:03:25.257Z,2396
2016-04-06T12:04:25.260Z,2508
2016-04-06T12:05:25.293Z,2084
2016-04-06T12:06:25.312Z,1672
2016-04-06T12:07:25.283Z,1808
2016-04-06T12:08:25.293Z,2188
2016-04-06T12:09:25.280Z,2448
2016-04-06T12:10:25.297Z,2412
2016-04-06T12:11:25.300Z,1524
2016-04-06T12:12:25.319Z,1188
2016-04-06T12:13:25.306Z,1328
2016-04-06T12:14:25.324Z,1252
2016-04-06T12:15:25.327Z,1348
2016-04-06T12:16:25.330Z,1612
2016-04-06T12:17:25.350Z,2300
2016-04-06T12:18:25.353Z,1996
2016-04-06T12:19:25.340Z,1928
2016-04-06T12:20:25.343Z,1492
2016-04-06T12:21:25.204Z,1548
2016-04-06T12:22:25.364Z,1368
2016-04-06T12:23:25.366Z,1732
2016-04-06T12:24:25.369Z,1700
2016-04-06T12:25:25.372Z,1288
2016-04-06T12:26:25.375Z,1128
2016-04-06T12:27:25.392Z,1048
2016-04-06T12:28:25.395Z,1108
2016-04-06T12:29:25.397Z,1192
2016-04-06T12:30:25.416Z,1052
2016-04-06T12:31:25.403Z,944
2016-04-06T12:32:25.406Z,928
2016-04-06T12:33:25.408Z,892
2016-04-06T12:34:25.444Z,780
2016-04-06T12:35:25.430Z,648
2016-04-06T12:36:25.573Z,604
2016-04-06T12:37:25.451Z,584
2016-04-06T12:38:25.454Z,532
2016-04-06T12:39:25.456Z,484
2016-04-06T12:40:25.460Z,488
2016-04-06T12:41:25.477Z,524
2016-04-06T12:42:25.480Z,440
2016-04-06T12:43:25.482Z,392
2016-04-06T12:44:25.501Z,368
2016-04-06T12:45:25.504Z,356
2016-04-06T12:46:25.507Z,344
2016-04-06T12:47:25.524Z,324
2016-04-06T12:48:25.526Z,312
2016-04-06T12:49:25.546Z,300
2016-04-06T12:50:25.532Z,292
2016-04-06T12:51:25.519Z,292
2016-04-06T12:52:25.553Z,296
2016-04-06T12:53:25.541Z,300
2016-04-06T12:54:25.543Z,320
2016-04-06T12:55:25.577Z,344
2016-04-06T12:56:25.565Z,344
2016-04-06T12:57:25.582Z,336
2016-04-06T12:58:25.586Z,332
2016-04-06T12:59:25.588Z,340
2016-04-06T13:00:25.606Z,356
2016-04-06T13:01:25.609Z,384
2016-04-06T13:02:25.628Z,392
2016-04-06T13:03:25.630Z,360
2016-04-06T13:04:25.616Z,328
2016-04-06T13:05:25.636Z,320
2016-04-06T13:06:25.700Z,304
2016-04-06T13:07:25.657Z,284
2016-04-06T13:08:25.674Z,272
2016-04-06T13:09:25.663Z,260
2016-04-06T13:10:25.665Z,252
2016-04-06T13:11:25.667Z,244
2016-04-06T13:12:25.707Z,248
2016-04-06T13:13:25.678Z,248
2016-04-06T13:14:25.697Z,248
2016-04-06T13:15:25.699Z,244
2016-04-06T13:16:25.718Z,244
2016-04-06T13:17:26.174Z,244
2016-04-06T13:18:25.739Z,248
2016-04-06T13:19:25.741Z,252
2016-04-06T13:20:25.744Z,252
2016-04-06T13:21:25.793Z,240
2016-04-06T13:22:25.749Z,244
2016-04-06T13:23:25.768Z,248
2016-04-06T13:24:25.771Z,268
2016-04-06T13:25:25.773Z,292
2016-04-06T13:26:25.792Z,316
2016-04-06T13:27:25.795Z,416
2016-04-06T13:28:25.812Z,612
2016-04-06T13:29:25.815Z,1232
2016-04-06T13:30:25.818Z,1316
2016-04-06T13:31:25.806Z,972
2016-04-06T13:32:25.823Z,884
2016-04-06T13:33:25.826Z,988
2016-04-06T13:34:25.845Z,1196
2016-04-06T13:35:25.847Z,1640
2016-04-06T13:36:25.865Z,1584
2016-04-06T13:37:25.868Z,1152
2016-04-06T13:38:25.886Z,1272
2016-04-06T13:39:25.889Z,1412
2016-04-06T13:40:25.158Z,1496
2016-04-06T13:41:25.894Z,1532
2016-04-06T13:42:25.897Z,1096
2016-04-06T13:43:25.931Z,564
2016-04-06T13:44:25.918Z,472
2016-04-06T13:45:25.921Z,380
2016-04-06T13:46:25.939Z,392
2016-04-06T13:47:25.958Z,416
2016-04-06T13:48:25.960Z,504
2016-04-06T13:49:25.979Z,720
2016-04-06T13:50:25.966Z,900
2016-04-06T13:51:25.968Z,888
2016-04-06T13:52:25.987Z,888
2016-04-06T13:53:26.005Z,1004
2016-04-06T13:54:26.023Z,1032
2016-04-06T13:55:25.995Z,988
2016-04-06T13:56:26.013Z,760
2016-04-06T13:57:26.015Z,784
2016-04-06T13:58:26.034Z,736
2016-04-06T13:59:26.052Z,668
2016-04-06T14:00:26.039Z,656
2016-04-06T14:01:26.073Z,692
2016-04-06T14:02:26.045Z,616
2016-04-06T14:03:26.048Z,560
2016-04-06T14:04:26.065Z,528
2016-04-06T14:05:26.084Z,492
2016-04-06T14:06:26.103Z,444
2016-04-06T14:07:26.105Z,432
2016-04-06T14:08:26.097Z,432
2016-04-06T14:09:26.099Z,636